Nord Copenhagen — 3FNV7 — position and weather

sailwx.info

Track history (hours):
 
Tides and Currents Weather Stations Pressure Air Temp Water Temp Dewpoint Dewpoint Depression Visibility Wind Speed Wind Dir Waves Ship Positions

Nord Copenhagen

Last reported at 2017-Feb-02 19:19 UTC. Time now 2017-Feb-21 08:04 UTC.
Position N 14°38' W 017°32'.
Warning: this ship's position is 18 days out of date.

Length 177 m; draft 10 m.

Type: Cargo ship. MMSI: 373334000.

Date/timePositionNaut miles runAvg speedWind from/ knotsBaromVisibWave heightAir tempDewpointWater temp
2017-Feb-02 19:19N 14°38' W 017°32'810.5
2017-Feb-02 18:34N 14°38' W 017°23'4 4.1
2017-Feb-02 17:34N 14°41' W 017°26'0 0.1
2017-Feb-02 16:32N 14°41' W 017°26'0 0.0
2017-Feb-02 14:32N 14°41' W 017°26'0 0.0
2017-Feb-02 13:05N 14°41' W 017°26'0 0.0
2017-Feb-02 12:32N 14°41' W 017°26'0 0.0
2017-Feb-02 11:32N 14°41' W 017°26'0 0.0
2017-Feb-02 10:32N 14°41' W 017°26'0 0.0
2017-Feb-02 09:32N 14°41' W 017°26'0 0.0
2017-Feb-02 08:32N 14°41' W 017°26'0 0.0
2017-Feb-02 07:32N 14°41' W 017°26'0 0.0
2017-Feb-02 06:32N 14°41' W 017°26'0 0.0
2017-Feb-02 05:29N 14°41' W 017°26'0 0.0
2017-Feb-02 04:26N 14°41' W 017°26'0 0.0
2017-Feb-02 03:32N 14°41' W 017°26'0 0.0
2017-Feb-02 02:32N 14°41' W 017°26'0 0.0
2017-Feb-02 01:32N 14°41' W 017°26'0 0.0
2017-Feb-02 00:32N 14°41' W 017°26'0 0.0
2017-Feb-01 23:32N 14°41' W 017°26'0 0.0
2017-Feb-01 22:32N 14°41' W 017°26'0 0.0
2017-Feb-01 21:23N 14°41' W 017°26'0 0.0
2017-Feb-01 20:32N 14°41' W 017°26'0 0.0
2017-Feb-01 19:32N 14°41' W 017°26'0 0.0
2017-Feb-01 18:26N 14°41' W 017°26'0 0.0
2017-Feb-01 17:26N 14°41' W 017°26'0 0.0
2017-Feb-01 16:26N 14°41' W 017°26'0 0.0
2017-Feb-01 15:32N 14°41' W 017°26'0 0.0
2017-Feb-01 14:29N 14°41' W 017°26'0 0.0
2017-Feb-01 12:32N 14°41' W 017°26'0 0.0
2017-Feb-01 11:32N 14°41' W 017°26'0 0.0
2017-Feb-01 10:32N 14°41' W 017°26'0 0.0
2017-Feb-01 09:32N 14°41' W 017°26'0 0.0
2017-Feb-01 08:29N 14°41' W 017°26'0 0.0
2017-Feb-01 07:23N 14°41' W 017°26'0 0.0
2017-Feb-01 06:23N 14°41' W 017°26'0 0.0
2017-Feb-01 05:23N 14°41' W 017°26'0 0.0
2017-Feb-01 04:29N 14°41' W 017°26'0 0.0
2017-Feb-01 03:29N 14°41' W 017°26'0 0.0
2017-Feb-01 02:20N 14°41' W 017°26'0 0.0
2017-Feb-01 01:23N 14°41' W 017°26'2 2.9
2017-Feb-01 00:33N 14°41' W 017°23'6 4.9
2017-Jan-31 23:16N 14°36' W 017°27'3210.2
2017-Jan-31 20:07N 15°06' W 017°38'  
2017-Jan-29 04:29N 28°20' W 013°17'1513.8
2017-Jan-29 03:24N 28°32' W 013°07'4013.4
2017-Jan-29 00:26N 29°03' W 012°39'53611.9
2017-Jan-27 03:33N 35°53' W 005°50'9 9.1
2017-Jan-27 02:33N 35°57' W 005°40'1010.5
2017-Jan-27 01:33N 36°00' W 005°28'9 8.7
2017-Jan-27 00:34N 36°09' W 005°24'1 1.0
2017-Jan-26 23:31N 36°10' W 005°25'0 0.0
2017-Jan-26 22:31N 36°10' W 005°25'0 0.0
2017-Jan-26 21:31N 36°10' W 005°25'0 0.0
2017-Jan-26 20:31N 36°10' W 005°25'0 0.0
2017-Jan-26 19:31N 36°10' W 005°25'0 0.1
2017-Jan-26 18:31N 36°09' W 005°25'0 0.0
2017-Jan-26 17:31N 36°09' W 005°25'0 0.0
2017-Jan-26 16:31N 36°09' W 005°25'0 0.0
2017-Jan-26 15:31N 36°09' W 005°25'0 0.0
2017-Jan-26 14:31N 36°09' W 005°25'0 0.0
2017-Jan-26 13:31N 36°09' W 005°25'0 0.0
2017-Jan-26 12:31N 36°09' W 005°25'0 0.1
2017-Jan-26 11:31N 36°09' W 005°25'0 0.1
2017-Jan-26 10:31N 36°09' W 005°25'0 0.0
2017-Jan-26 09:28N 36°09' W 005°25'0 0.0
2017-Jan-26 08:31N 36°09' W 005°25'0 0.0
2017-Jan-26 07:28N 36°09' W 005°25'0 0.0
2017-Jan-26 06:31N 36°09' W 005°25'0 0.0
2017-Jan-26 05:31N 36°09' W 005°25'0 0.0
2017-Jan-26 04:31N 36°09' W 005°25'0 0.0
2017-Jan-26 03:31N 36°09' W 005°24'0 0.0
2017-Jan-26 02:31N 36°09' W 005°24'0 0.0
2017-Jan-26 01:31N 36°09' W 005°24'0 0.0
2017-Jan-26 00:31N 36°09' W 005°24'0 0.0
2017-Jan-25 23:31N 36°09' W 005°24'0 0.0
2017-Jan-25 22:31N 36°09' W 005°24'0 0.0
2017-Jan-25 21:25N 36°09' W 005°24'0 0.0
2017-Jan-25 20:31N 36°09' W 005°24'0 0.1
2017-Jan-25 19:31N 36°09' W 005°24'0 0.0
2017-Jan-25 18:31N 36°09' W 005°24'0 0.0
2017-Jan-25 17:31N 36°09' W 005°24'0 0.0
2017-Jan-25 16:28N 36°09' W 005°24'0 0.0
2017-Jan-25 15:34N 36°09' W 005°24'0 0.1
2017-Jan-25 14:31N 36°09' W 005°24'0 0.0
2017-Jan-25 13:31N 36°09' W 005°24'0 0.0
2017-Jan-25 12:28N 36°09' W 005°24'0 0.0
2017-Jan-25 11:31N 36°09' W 005°24'0 0.0
2017-Jan-25 10:28N 36°09' W 005°24'0 0.0
2017-Jan-25 09:31N 36°09' W 005°24'2 2.2
2017-Jan-25 08:34N 36°07' W 005°24'6 6.0
2017-Jan-25 07:33N 36°03' W 005°18'9 8.6
2017-Jan-25 06:33N 36°05' W 005°08'  
Track history (hours):
 
Tides and Currents Weather Stations Pressure Air Temp Water Temp Dewpoint Dewpoint Depression Visibility Wind Speed Wind Dir Waves Ship Positions

Nord Copenhagen

Last reported at 2017-Feb-02 19:19 UTC. Time now 2017-Feb-21 08:04 UTC.
Position N 14°38' W 017°32'.
Warning: this ship's position is 18 days out of date.

Length 177 m; draft 10 m.

Type: Cargo ship. MMSI: 373334000.

Date/timePositionNaut miles runAvg speedWind from/ knotsBaromVisibWave heightAir tempDewpointWater temp
2017-Feb-02 19:19N 14°38' W 017°32'810.5
2017-Feb-02 18:34N 14°38' W 017°23'4 4.1
2017-Feb-02 17:34N 14°41' W 017°26'0 0.1
2017-Feb-02 16:32N 14°41' W 017°26'0 0.0
2017-Feb-02 14:32N 14°41' W 017°26'0 0.0
2017-Feb-02 13:05N 14°41' W 017°26'0 0.0
2017-Feb-02 12:32N 14°41' W 017°26'0 0.0
2017-Feb-02 11:32N 14°41' W 017°26'0 0.0
2017-Feb-02 10:32N 14°41' W 017°26'0 0.0
2017-Feb-02 09:32N 14°41' W 017°26'0 0.0
2017-Feb-02 08:32N 14°41' W 017°26'0 0.0
2017-Feb-02 07:32N 14°41' W 017°26'0 0.0
2017-Feb-02 06:32N 14°41' W 017°26'0 0.0
2017-Feb-02 05:29N 14°41' W 017°26'0 0.0
2017-Feb-02 04:26N 14°41' W 017°26'0 0.0
2017-Feb-02 03:32N 14°41' W 017°26'0 0.0
2017-Feb-02 02:32N 14°41' W 017°26'0 0.0
2017-Feb-02 01:32N 14°41' W 017°26'0 0.0
2017-Feb-02 00:32N 14°41' W 017°26'0 0.0
2017-Feb-01 23:32N 14°41' W 017°26'0 0.0
2017-Feb-01 22:32N 14°41' W 017°26'0 0.0
2017-Feb-01 21:23N 14°41' W 017°26'0 0.0
2017-Feb-01 20:32N 14°41' W 017°26'0 0.0
2017-Feb-01 19:32N 14°41' W 017°26'0 0.0
2017-Feb-01 18:26N 14°41' W 017°26'0 0.0
2017-Feb-01 17:26N 14°41' W 017°26'0 0.0
2017-Feb-01 16:26N 14°41' W 017°26'0 0.0
2017-Feb-01 15:32N 14°41' W 017°26'0 0.0
2017-Feb-01 14:29N 14°41' W 017°26'0 0.0
2017-Feb-01 12:32N 14°41' W 017°26'0 0.0
2017-Feb-01 11:32N 14°41' W 017°26'0 0.0
2017-Feb-01 10:32N 14°41' W 017°26'0 0.0
2017-Feb-01 09:32N 14°41' W 017°26'0 0.0
2017-Feb-01 08:29N 14°41' W 017°26'0 0.0
2017-Feb-01 07:23N 14°41' W 017°26'0 0.0
2017-Feb-01 06:23N 14°41' W 017°26'0 0.0
2017-Feb-01 05:23N 14°41' W 017°26'0 0.0
2017-Feb-01 04:29N 14°41' W 017°26'0 0.0
2017-Feb-01 03:29N 14°41' W 017°26'0 0.0
2017-Feb-01 02:20N 14°41' W 017°26'0 0.0
2017-Feb-01 01:23N 14°41' W 017°26'2 2.9
2017-Feb-01 00:33N 14°41' W 017°23'6 4.9
2017-Jan-31 23:16N 14°36' W 017°27'3210.2
2017-Jan-31 20:07N 15°06' W 017°38'  
2017-Jan-29 04:29N 28°20' W 013°17'1513.8
2017-Jan-29 03:24N 28°32' W 013°07'4013.4
2017-Jan-29 00:26N 29°03' W 012°39'53611.9
2017-Jan-27 03:33N 35°53' W 005°50'9 9.1
2017-Jan-27 02:33N 35°57' W 005°40'1010.5
2017-Jan-27 01:33N 36°00' W 005°28'9 8.7
2017-Jan-27 00:34N 36°09' W 005°24'1 1.0
2017-Jan-26 23:31N 36°10' W 005°25'0 0.0
2017-Jan-26 22:31N 36°10' W 005°25'0 0.0
2017-Jan-26 21:31N 36°10' W 005°25'0 0.0
2017-Jan-26 20:31N 36°10' W 005°25'0 0.0
2017-Jan-26 19:31N 36°10' W 005°25'0 0.1
2017-Jan-26 18:31N 36°09' W 005°25'0 0.0
2017-Jan-26 17:31N 36°09' W 005°25'0 0.0
2017-Jan-26 16:31N 36°09' W 005°25'0 0.0
2017-Jan-26 15:31N 36°09' W 005°25'0 0.0
2017-Jan-26 14:31N 36°09' W 005°25'0 0.0
2017-Jan-26 13:31N 36°09' W 005°25'0 0.0
2017-Jan-26 12:31N 36°09' W 005°25'0 0.1
2017-Jan-26 11:31N 36°09' W 005°25'0 0.1
2017-Jan-26 10:31N 36°09' W 005°25'0 0.0
2017-Jan-26 09:28N 36°09' W 005°25'0 0.0
2017-Jan-26 08:31N 36°09' W 005°25'0 0.0
2017-Jan-26 07:28N 36°09' W 005°25'0 0.0
2017-Jan-26 06:31N 36°09' W 005°25'0 0.0
2017-Jan-26 05:31N 36°09' W 005°25'0 0.0
2017-Jan-26 04:31N 36°09' W 005°25'0 0.0
2017-Jan-26 03:31N 36°09' W 005°24'0 0.0
2017-Jan-26 02:31N 36°09' W 005°24'0 0.0
2017-Jan-26 01:31N 36°09' W 005°24'0 0.0
2017-Jan-26 00:31N 36°09' W 005°24'0 0.0
2017-Jan-25 23:31N 36°09' W 005°24'0 0.0
2017-Jan-25 22:31N 36°09' W 005°24'0 0.0
2017-Jan-25 21:25N 36°09' W 005°24'0 0.0
2017-Jan-25 20:31N 36°09' W 005°24'0 0.1
2017-Jan-25 19:31N 36°09' W 005°24'0 0.0
2017-Jan-25 18:31N 36°09' W 005°24'0 0.0
2017-Jan-25 17:31N 36°09' W 005°24'0 0.0
2017-Jan-25 16:28N 36°09' W 005°24'0 0.0
2017-Jan-25 15:34N 36°09' W 005°24'0 0.1
2017-Jan-25 14:31N 36°09' W 005°24'0 0.0
2017-Jan-25 13:31N 36°09' W 005°24'0 0.0
2017-Jan-25 12:28N 36°09' W 005°24'0 0.0
2017-Jan-25 11:31N 36°09' W 005°24'0 0.0
2017-Jan-25 10:28N 36°09' W 005°24'0 0.0
2017-Jan-25 09:31N 36°09' W 005°24'2 2.2
2017-Jan-25 08:34N 36°07' W 005°24'6 6.0
2017-Jan-25 07:33N 36°03' W 005°18'9 8.6
2017-Jan-25 06:33N 36°05' W 005°08'  

Dump ship's entire track history